Time;durP1;ratioP1;P1;durP2;ratioP2;P2;SDS_P1;SDS_P2;PMS_P1;PMS_P2;Temp;Humidity;BMP_temperature;BMP_pressure;BME280_temperature;BME280_humidity;BME280_pressure;Samples;Min_cycle;Max_cycle;Signal;HPM_P1;HPM_P2
2022/04/29 00:01:55;;;;;;;19.08;8.48;;;4.20;90.60;;;;;;5110214;28;20343;-70
2022/04/29 00:04:20;;;;;;;21.42;8.40;;;4.30;90.80;;;;;;5099568;28;20089;-70
2022/04/29 00:06:46;;;;;;;19.88;8.63;;;4.30;91.00;;;;;;5112197;28;20118;-70
2022/04/29 00:09:12;;;;;;;23.75;8.73;;;4.30;91.20;;;;;;5110215;28;20058;-70
2022/04/29 00:11:37;;;;;;;21.52;9.60;;;4.30;91.30;;;;;;5105519;28;20031;-70
2022/04/29 00:14:03;;;;;;;23.98;8.40;;;4.30;91.40;;;;;;5104614;27;22381;-70
2022/04/29 00:16:28;;;;;;;22.67;9.07;;;4.30;91.40;;;;;;5095927;28;20556;-71
2022/04/29 00:18:54;;;;;;;26.50;8.82;;;4.30;91.40;;;;;;5109116;28;20039;-71
2022/04/29 00:21:19;;;;;;;25.83;9.52;;;4.30;91.30;;;;;;5102927;28;20407;-71
2022/04/29 00:23:45;;;;;;;28.85;9.65;;;4.30;91.30;;;;;;5103910;28;20092;-71
2022/04/29 00:26:10;;;;;;;27.80;9.73;;;4.20;91.40;;;;;;5107092;28;20028;-71
2022/04/29 00:28:36;;;;;;;26.10;9.95;;;4.30;91.40;;;;;;5112369;28;20419;-71
2022/04/29 00:31:01;;;;;;;26.38;10.32;;;4.30;91.60;;;;;;5109864;28;20027;-71
2022/04/29 00:33:27;;;;;;;25.10;10.07;;;4.30;91.50;;;;;;5113548;28;20027;-71
2022/04/29 00:35:52;;;;;;;23.90;9.65;;;4.30;91.60;;;;;;5103807;28;20450;-71
2022/04/29 00:38:18;;;;;;;23.98;10.80;;;4.30;91.60;;;;;;5101240;28;20035;-71
2022/04/29 00:40:44;;;;;;;21.73;10.30;;;4.30;91.60;;;;;;5102248;28;20055;-71
2022/04/29 00:43:11;;;;;;;25.48;9.57;;;4.20;91.50;;;;;;5083144;28;20032;-71
2022/04/29 00:45:37;;;;;;;27.80;10.82;;;4.20;91.60;;;;;;5106821;28;20114;-71
2022/04/29 00:48:02;;;;;;;19.77;9.45;;;4.20;91.80;;;;;;5109895;28;20157;-71
2022/04/29 00:50:29;;;;;;;23.35;10.00;;;4.10;92.00;;;;;;5108132;28;20034;-71
2022/04/29 00:52:58;;;;;;;19.38;8.95;;;4.00;92.00;;;;;;5100841;28;20054;-71
2022/04/29 00:55:23;;;;;;;21.35;8.90;;;4.00;92.10;;;;;;5104802;28;20050;-71
2022/04/29 00:58:16;;;;;;;20.13;8.80;;;3.90;92.00;;;;;;5105457;28;20027;-71
2022/04/29 01:00:42;;;;;;;22.35;8.32;;;3.80;91.90;;;;;;5105921;28;20509;-71
2022/04/29 01:03:11;;;;;;;27.25;9.23;;;3.70;91.90;;;;;;5104612;28;20028;-71
2022/04/29 01:05:39;;;;;;;21.92;9.00;;;3.70;92.10;;;;;;5089350;28;20036;-71
2022/04/29 01:08:05;;;;;;;19.10;8.98;;;3.70;92.00;;;;;;5109518;28;20463;-71
2022/04/29 01:10:31;;;;;;;17.92;7.75;;;3.60;91.90;;;;;;5106849;28;20423;-71
2022/04/29 01:13:02;;;;;;;20.38;8.82;;;3.60;91.80;;;;;;5108076;28;20055;-71
2022/04/29 01:15:28;;;;;;;13.48;9.18;;;3.50;91.80;;;;;;5101622;28;20043;-71
2022/04/29 01:17:56;;;;;;;18.02;9.35;;;3.50;91.60;;;;;;5104564;28;20031;-71
2022/04/29 01:20:27;;;;;;;17.23;8.20;;;3.50;91.50;;;;;;5108954;28;20055;-71
2022/04/29 01:22:53;;;;;;;20.55;8.48;;;3.50;91.50;;;;;;5106816;28;20036;-71
2022/04/29 01:25:18;;;;;;;26.10;8.90;;;3.40;91.50;;;;;;5111409;28;20050;-71
2022/04/29 01:27:44;;;;;;;18.27;8.23;;;3.50;91.60;;;;;;5106353;28;20020;-71
2022/04/29 01:30:12;;;;;;;23.40;9.73;;;3.50;91.50;;;;;;5108451;28;20042;-71
2022/04/29 01:32:39;;;;;;;22.35;9.20;;;3.40;91.50;;;;;;5098791;28;20035;-71
2022/04/29 01:35:06;;;;;;;22.92;9.50;;;3.50;91.80;;;;;;5097769;28;20030;-71
2022/04/29 01:37:32;;;;;;;22.58;9.98;;;3.50;92.00;;;;;;5097828;28;20449;-71
2022/04/29 01:39:58;;;;;;;20.27;9.85;;;3.60;92.20;;;;;;5109776;28;20026;-71
2022/04/29 01:42:23;;;;;;;27.00;10.68;;;3.60;92.20;;;;;;5109862;28;20122;-71
2022/04/29 01:44:49;;;;;;;22.73;10.02;;;3.70;92.30;;;;;;5103753;28;20111;-71
2022/04/29 01:47:15;;;;;;;23.42;10.70;;;3.70;92.30;;;;;;5108125;28;20019;-71
2022/04/29 01:49:41;;;;;;;22.20;10.20;;;3.70;92.20;;;;;;5109342;28;20042;-71
2022/04/29 01:52:08;;;;;;;26.65;11.50;;;3.70;91.90;;;;;;5089767;28;20088;-71
2022/04/29 01:54:35;;;;;;;23.45;10.77;;;3.70;91.90;;;;;;5108161;28;20038;-71
2022/04/29 01:57:00;;;;;;;28.17;10.50;;;3.70;91.80;;;;;;5111610;28;20077;-71
2022/04/29 01:59:27;;;;;;;25.27;10.77;;;3.80;91.80;;;;;;5105331;28;20375;-71
2022/04/29 02:01:53;;;;;;;23.77;11.38;;;3.80;92.00;;;;;;5101178;28;20028;-71
2022/04/29 02:04:18;;;;;;;23.52;10.20;;;3.80;92.10;;;;;;5110457;28;20105;-71
2022/04/29 02:06:44;;;;;;;22.45;9.63;;;3.80;92.10;;;;;;5091894;28;20072;-71
2022/04/29 02:09:10;;;;;;;24.58;10.20;;;3.60;92.10;;;;;;5107568;28;20035;-71
2022/04/29 02:11:35;;;;;;;19.67;10.38;;;3.60;92.30;;;;;;5097556;28;20024;-71
2022/04/29 02:14:01;;;;;;;24.80;11.20;;;3.70;92.50;;;;;;5101507;28;20032;-71
2022/04/29 02:16:27;;;;;;;19.25;10.45;;;3.60;92.50;;;;;;5107170;28;20043;-71
2022/04/29 02:18:53;;;;;;;23.70;10.02;;;3.70;92.50;;;;;;5101861;28;20024;-71
2022/04/29 02:21:18;;;;;;;25.30;11.05;;;3.80;92.50;;;;;;5102277;28;20043;-71
2022/04/29 02:23:44;;;;;;;26.70;11.43;;;3.80;92.50;;;;;;5107690;28;20056;-71
2022/04/29 02:26:10;;;;;;;22.80;10.65;;;3.70;92.40;;;;;;5100338;28;20038;-71
2022/04/29 02:28:35;;;;;;;24.40;11.07;;;3.70;92.40;;;;;;5099500;28;20035;-71
2022/04/29 02:31:01;;;;;;;19.00;10.80;;;3.70;92.30;;;;;;5109385;28;20123;-71
2022/04/29 02:33:27;;;;;;;23.27;12.02;;;3.80;92.30;;;;;;5103930;28;20442;-71
2022/04/29 02:35:53;;;;;;;22.42;10.63;;;3.80;92.40;;;;;;5102457;28;20410;-71
2022/04/29 02:38:19;;;;;;;26.77;11.60;;;3.80;92.30;;;;;;5108078;28;20034;-71
2022/04/29 02:40:45;;;;;;;27.80;10.98;;;3.70;92.20;;;;;;5103933;28;20047;-71
2022/04/29 02:43:10;;;;;;;21.65;11.80;;;3.70;92.20;;;;;;5104645;28;20081;-71
2022/04/29 02:45:36;;;;;;;20.85;11.13;;;3.70;92.20;;;;;;5101549;28;20039;-71
2022/04/29 02:48:03;;;;;;;23.45;11.88;;;3.80;92.40;;;;;;5107059;28;20099;-71
2022/04/29 02:50:29;;;;;;;23.77;11.30;;;3.80;92.50;;;;;;5110653;28;20049;-71
2022/04/29 02:52:55;;;;;;;21.70;11.57;;;3.70;92.30;;;;;;5108831;28;20031;-71
2022/04/29 02:55:20;;;;;;;28.60;11.45;;;3.70;92.40;;;;;;5106048;28;20096;-71
2022/04/29 02:57:46;;;;;;;25.17;10.57;;;3.70;92.30;;;;;;5102301;28;20032;-71
2022/04/29 03:00:12;;;;;;;22.30;10.88;;;3.60;92.20;;;;;;5098167;28;20476;-71
2022/04/29 03:02:37;;;;;;;25.83;11.55;;;3.70;92.20;;;;;;5108232;28;20035;-71
2022/04/29 03:05:07;;;;;;;22.42;11.30;;;3.80;92.30;;;;;;5108105;28;20458;-71
2022/04/29 03:07:35;;;;;;;22.88;12.00;;;3.80;92.50;;;;;;5107621;28;20035;-71
2022/04/29 03:10:01;;;;;;;25.73;13.15;;;3.80;92.70;;;;;;5109079;28;20031;-71
2022/04/29 03:12:27;;;;;;;24.05;12.52;;;3.80;92.70;;;;;;5107409;28;20503;-71
2022/04/29 03:14:52;;;;;;;28.20;12.75;;;3.90;92.80;;;;;;5106968;28;20039;-71
2022/04/29 03:20:04;;;;;;;20.92;10.93;;;3.90;92.60;;;;;;5107131;28;20406;-71
2022/04/29 03:22:29;;;;;;;21.92;11.25;;;3.80;92.60;;;;;;5109768;28;20039;-71
2022/04/29 03:24:55;;;;;;;21.65;11.27;;;3.80;92.70;;;;;;5110077;28;20347;-71
2022/04/29 03:27:21;;;;;;;21.77;11.05;;;3.80;92.70;;;;;;5097175;28;20118;-71
2022/04/29 03:29:47;;;;;;;21.73;11.52;;;3.80;92.80;;;;;;5110343;28;20078;-71
2022/04/29 03:32:13;;;;;;;22.75;11.88;;;3.80;92.80;;;;;;5100013;28;20027;-71
2022/04/29 03:34:39;;;;;;;23.45;12.27;;;3.80;92.90;;;;;;5103658;28;20030;-71
2022/04/29 03:37:05;;;;;;;21.33;11.07;;;3.80;93.00;;;;;;5108586;28;20097;-71
2022/04/29 03:39:30;;;;;;;21.65;11.30;;;3.80;93.00;;;;;;5108988;28;20355;-71
2022/04/29 03:41:56;;;;;;;30.55;12.00;;;3.70;93.00;;;;;;5108042;28;20203;-71
2022/04/29 03:44:22;;;;;;;22.92;12.60;;;3.70;93.00;;;;;;5097922;28;20067;-71
2022/04/29 03:46:48;;;;;;;18.75;11.10;;;3.60;93.00;;;;;;5096912;28;20379;-71
2022/04/29 03:51:57;;;;;;;19.55;11.18;;;3.50;93.00;;;;;;5097568;28;20034;-71
2022/04/29 03:54:23;;;;;;;16.80;11.15;;;3.50;93.00;;;;;;5100234;28;20375;-71
2022/04/29 03:56:49;;;;;;;17.08;10.15;;;3.40;93.00;;;;;;5092079;28;20395;-71
2022/04/29 03:59:14;;;;;;;15.88;9.43;;;3.40;93.10;;;;;;5112698;28;20102;-71
2022/04/29 04:01:41;;;;;;;19.08;9.38;;;3.30;92.90;;;;;;5107991;28;20439;-71
2022/04/29 04:04:06;;;;;;;16.27;9.75;;;3.30;92.70;;;;;;5105125;28;20035;-71
2022/04/29 04:06:50;;;;;;;15.77;9.70;;;3.30;92.70;;;;;;5105784;28;20039;-71
2022/04/29 04:09:23;;;;;;;20.08;10.80;;;3.30;92.60;;;;;;5105313;28;20059;-71
2022/04/29 04:11:48;;;;;;;18.63;9.63;;;3.30;92.70;;;;;;5086753;28;20088;-71
2022/04/29 04:14:16;;;;;;;15.73;10.43;;;3.30;92.60;;;;;;5105578;28;20032;-71
2022/04/29 04:16:42;;;;;;;13.52;8.05;;;3.20;92.60;;;;;;5107079;28;20035;-71
2022/04/29 04:19:07;;;;;;;16.55;9.05;;;3.20;92.50;;;;;;5097327;28;20040;-69
2022/04/29 04:21:34;;;;;;;15.68;10.25;;;3.10;92.30;;;;;;5098866;28;20053;-69
2022/04/29 04:23:59;;;;;;;13.57;9.10;;;3.20;92.30;;;;;;5101233;28;20024;-69
2022/04/29 04:26:25;;;;;;;17.05;9.40;;;3.20;92.30;;;;;;5093315;28;20044;-69
2022/04/29 04:28:50;;;;;;;17.42;10.30;;;3.20;92.10;;;;;;5110617;28;20355;-70
2022/04/29 04:31:16;;;;;;;21.25;10.32;;;3.30;92.10;;;;;;5109071;28;20050;-69
2022/04/29 04:33:41;;;;;;;26.50;11.57;;;3.40;92.00;;;;;;5102181;28;20039;-69
2022/04/29 04:36:09;;;;;;;18.95;10.13;;;3.40;92.10;;;;;;5092677;28;20032;-69
2022/04/29 04:38:37;;;;;;;17.77;10.65;;;3.40;92.00;;;;;;5110220;28;20019;-70
2022/04/29 04:41:03;;;;;;;22.40;10.77;;;3.50;92.00;;;;;;5107890;28;20131;-70
2022/04/29 04:43:29;;;;;;;20.20;10.73;;;3.60;92.20;;;;;;5100196;28;20475;-70
2022/04/29 04:45:54;;;;;;;20.60;11.23;;;3.60;92.10;;;;;;5095823;27;20041;-70
2022/04/29 04:48:20;;;;;;;25.60;12.13;;;3.70;92.20;;;;;;5109885;28;20531;-70
2022/04/29 04:50:46;;;;;;;21.23;11.13;;;3.80;92.30;;;;;;5108887;28;20035;-70
2022/04/29 04:53:12;;;;;;;30.17;12.35;;;3.90;92.30;;;;;;5100867;28;20060;-70
2022/04/29 04:55:39;;;;;;;26.92;12.30;;;4.10;92.30;;;;;;5095922;28;20097;-70
2022/04/29 04:58:04;;;;;;;23.13;12.18;;;4.20;92.40;;;;;;5102979;28;20028;-70
2022/04/29 05:00:30;;;;;;;22.38;10.35;;;4.30;92.40;;;;;;5086870;28;20743;-69
2022/04/29 05:02:56;;;;;;;24.77;12.27;;;4.40;92.30;;;;;;5102735;28;20034;-69
2022/04/29 05:05:21;;;;;;;24.00;12.10;;;4.60;92.40;;;;;;5097154;28;20048;-70
2022/04/29 05:07:47;;;;;;;28.25;12.43;;;4.80;92.50;;;;;;5105759;28;20023;-70
2022/04/29 05:10:13;;;;;;;23.38;11.70;;;4.90;92.40;;;;;;5108300;28;20023;-71
2022/04/29 05:12:41;;;;;;;23.27;11.70;;;5.10;92.30;;;;;;5108825;28;20036;-71
2022/04/29 05:15:07;;;;;;;17.35;10.38;;;5.10;92.00;;;;;;5100508;28;20058;-70
2022/04/29 05:17:33;;;;;;;17.38;9.65;;;5.20;91.90;;;;;;5102593;28;20046;-71
2022/04/29 05:19:58;;;;;;;22.00;10.23;;;5.30;91.90;;;;;;5095228;28;20036;-72
2022/04/29 05:22:24;;;;;;;19.50;10.73;;;5.40;91.80;;;;;;5091188;28;20042;-72
2022/04/29 05:24:49;;;;;;;22.33;9.77;;;5.50;91.70;;;;;;5108286;28;20474;-72
2022/04/29 05:27:15;;;;;;;18.90;8.85;;;5.60;91.40;;;;;;5105293;28;20114;-72
2022/04/29 05:29:40;;;;;;;18.83;8.95;;;5.60;91.00;;;;;;5094885;28;20413;-72
2022/04/29 05:32:07;;;;;;;24.92;9.40;;;5.60;90.90;;;;;;5084396;28;20487;-72
2022/04/29 05:34:33;;;;;;;16.00;8.43;;;5.70;90.90;;;;;;5099712;28;20060;-72
2022/04/29 05:37:00;;;;;;;18.52;8.68;;;5.80;91.00;;;;;;5108747;28;20031;-72
2022/04/29 05:42:15;;;;;;;17.85;8.82;;;5.80;90.60;;;;;;5112084;28;20090;-73
2022/04/29 05:44:41;;;;;;;19.30;8.63;;;5.80;90.20;;;;;;5103430;28;20306;-72
2022/04/29 05:47:07;;;;;;;20.25;8.55;;;6.00;90.40;;;;;;5101726;28;20119;-72
2022/04/29 05:49:33;;;;;;;13.75;7.93;;;6.00;90.20;;;;;;5100520;28;20111;-72
2022/04/29 05:52:01;;;;;;;15.18;8.30;;;6.10;90.10;;;;;;5092496;28;20055;-72
2022/04/29 05:54:27;;;;;;;16.40;8.18;;;6.10;90.10;;;;;;5091480;28;20487;-72
2022/04/29 05:56:52;;;;;;;20.55;8.35;;;6.10;90.00;;;;;;5107563;28;20061;-73
2022/04/29 05:59:17;;;;;;;19.52;8.05;;;6.20;90.00;;;;;;5108058;28;20031;-72
2022/04/29 06:01:43;;;;;;;18.48;8.18;;;6.10;89.70;;;;;;5092096;28;20035;-72
2022/04/29 06:04:08;;;;;;;16.95;8.27;;;6.20;89.80;;;;;;5110195;28;20455;-72
2022/04/29 06:06:34;;;;;;;16.02;7.80;;;6.20;89.90;;;;;;5102550;28;20041;-72
2022/04/29 06:09:00;;;;;;;17.08;7.68;;;6.30;89.70;;;;;;5102239;28;20062;-72
2022/04/29 06:11:25;;;;;;;15.95;8.43;;;6.40;89.70;;;;;;5103964;28;20099;-72
2022/04/29 06:13:51;;;;;;;16.85;7.72;;;6.40;89.40;;;;;;5110704;28;20023;-72
2022/04/29 06:16:17;;;;;;;15.60;6.72;;;6.50;89.10;;;;;;5111318;28;20035;-72
2022/04/29 06:18:43;;;;;;;11.48;7.07;;;6.60;89.00;;;;;;5104848;28;20518;-73
2022/04/29 06:21:08;;;;;;;16.35;7.07;;;6.80;88.60;;;;;;5096453;28;20035;-71
2022/04/29 06:23:34;;;;;;;17.08;6.88;;;6.80;88.10;;;;;;5100064;28;20032;-71
2022/04/29 06:26:00;;;;;;;15.05;7.30;;;7.00;87.80;;;;;;5095614;28;20036;-72
2022/04/29 06:28:25;;;;;;;16.73;7.05;;;7.30;87.70;;;;;;5108741;28;20029;-73
2022/04/29 06:30:51;;;;;;;16.23;6.63;;;7.60;87.50;;;;;;5104302;28;20043;-73
2022/04/29 06:33:16;;;;;;;10.77;6.10;;;7.70;86.30;;;;;;5103886;28;20036;-73
2022/04/29 06:35:42;;;;;;;14.32;6.05;;;8.00;85.90;;;;;;5102980;28;20092;-70
2022/04/29 06:38:12;;;;;;;12.93;5.97;;;8.20;85.10;;;;;;5097209;28;20418;-70
2022/04/29 06:40:37;;;;;;;15.93;5.80;;;8.40;83.90;;;;;;5102027;28;20051;-70
2022/04/29 06:43:03;;;;;;;17.67;5.93;;;8.40;83.00;;;;;;5107839;28;20050;-70
2022/04/29 06:45:28;;;;;;;10.70;5.72;;;8.50;82.60;;;;;;5105390;28;20398;-70
2022/04/29 06:47:54;;;;;;;10.80;5.65;;;8.50;82.40;;;;;;5108488;28;20061;-70
2022/04/29 06:50:20;;;;;;;10.40;4.75;;;8.60;82.20;;;;;;5106651;28;20040;-70
2022/04/29 06:52:45;;;;;;;8.80;5.07;;;8.60;81.70;;;;;;5104277;28;20043;-70
2022/04/29 06:55:11;;;;;;;10.73;5.35;;;8.70;81.90;;;;;;5104738;28;20050;-71
2022/04/29 06:57:37;;;;;;;10.25;5.18;;;8.60;81.50;;;;;;5103612;28;20020;-70
2022/04/29 07:00:04;;;;;;;10.80;5.38;;;8.70;81.10;;;;;;5093927;28;20035;-70
2022/04/29 07:02:31;;;;;;;13.65;5.47;;;8.80;81.40;;;;;;5104568;28;20478;-70
2022/04/29 07:04:57;;;;;;;14.55;4.90;;;9.00;81.80;;;;;;5107601;28;20406;-70
2022/04/29 07:07:22;;;;;;;10.98;4.55;;;9.50;81.70;;;;;;5108733;28;20035;-70
2022/04/29 07:09:47;;;;;;;9.30;5.30;;;9.40;79.40;;;;;;5104801;28;20043;-70
2022/04/29 07:12:13;;;;;;;11.82;4.88;;;9.50;79.40;;;;;;5095038;28;20027;-70
2022/04/29 07:14:38;;;;;;;15.43;5.28;;;9.60;79.30;;;;;;5101943;28;20555;-70
2022/04/29 07:17:04;;;;;;;13.02;4.68;;;9.60;78.30;;;;;;5104751;28;20023;-71
2022/04/29 07:19:30;;;;;;;8.57;4.60;;;9.50;78.50;;;;;;5092460;28;20097;-71
2022/04/29 07:21:55;;;;;;;10.00;4.20;;;9.90;78.70;;;;;;5100602;28;20028;-71
2022/04/29 07:24:21;;;;;;;8.88;4.53;;;9.70;76.80;;;;;;5103012;28;20177;-70
2022/04/29 07:26:46;;;;;;;10.02;4.63;;;10.10;77.90;;;;;;5106871;28;20048;-70
2022/04/29 07:29:12;;;;;;;10.07;4.32;;;10.30;75.60;;;;;;5109339;28;20031;-70
2022/04/29 07:31:37;;;;;;;9.95;4.03;;;10.20;74.40;;;;;;5102561;28;20055;-71
2022/04/29 07:34:03;;;;;;;8.88;4.18;;;10.60;75.60;;;;;;5108683;28;20038;-71
2022/04/29 07:41:57;;;;;;;8.63;3.67;;;10.80;75.10;;;;;;5106198;28;20089;-71
2022/04/29 07:44:22;;;;;;;11.38;3.63;;;11.10;72.60;;;;;;5100206;28;20028;-71
2022/04/29 07:46:49;;;;;;;8.45;3.47;;;11.20;72.80;;;;;;5109294;28;20040;-71
2022/04/29 07:49:14;;;;;;;10.82;3.85;;;11.30;72.70;;;;;;5087601;28;20120;-71
2022/04/29 07:51:40;;;;;;;10.15;3.72;;;11.60;71.30;;;;;;5106323;28;20471;-70
2022/04/29 07:54:07;;;;;;;11.10;3.35;;;11.40;71.10;;;;;;5099736;28;20112;-70
2022/04/29 07:56:33;;;;;;;7.25;3.10;;;11.60;70.30;;;;;;5105945;28;20039;-71
2022/04/29 07:58:59;;;;;;;9.77;3.35;;;11.40;70.50;;;;;;5109590;28;20046;-71
2022/04/29 08:01:28;;;;;;;8.15;3.22;;;11.50;71.40;;;;;;5109886;28;20371;-71
2022/04/29 08:03:54;;;;;;;7.88;2.72;;;11.30;70.10;;;;;;5106603;28;20028;-71
2022/04/29 08:06:20;;;;;;;10.60;3.38;;;11.30;68.40;;;;;;5096233;28;20040;-71
2022/04/29 08:08:46;;;;;;;7.10;3.10;;;11.50;69.20;;;;;;5100362;28;20485;-71
2022/04/29 08:11:14;;;;;;;12.23;3.55;;;11.10;68.70;;;;;;5110181;28;20115;-71
2022/04/29 08:13:41;;;;;;;6.35;3.30;;;11.20;69.50;;;;;;5105159;28;20028;-71
2022/04/29 08:16:08;;;;;;;5.47;2.88;;;11.30;69.50;;;;;;5098673;28;20020;-71
2022/04/29 08:18:34;;;;;;;8.07;3.50;;;11.30;68.20;;;;;;5112399;28;20092;-71
2022/04/29 08:20:59;;;;;;;10.60;3.20;;;11.60;68.20;;;;;;5107743;28;20467;-71
2022/04/29 08:23:25;;;;;;;6.50;2.53;;;12.00;67.10;;;;;;5105224;28;20077;-71
2022/04/29 08:25:51;;;;;;;11.88;3.03;;;11.20;67.90;;;;;;5105433;28;20081;-71
2022/04/29 08:28:16;;;;;;;9.30;2.50;;;12.00;68.70;;;;;;5110849;28;20070;-71
2022/04/29 08:30:42;;;;;;;6.95;2.40;;;12.10;66.60;;;;;;5102713;28;20035;-71
2022/04/29 08:33:13;;;;;;;8.45;2.70;;;12.80;66.20;;;;;;5107663;28;20055;-71
2022/04/29 08:35:39;;;;;;;9.00;2.67;;;12.20;65.00;;;;;;5107107;28;20023;-71
2022/04/29 08:38:09;;;;;;;6.50;2.75;;;12.70;65.50;;;;;;5107440;28;20031;-71
2022/04/29 08:40:39;;;;;;;5.97;2.75;;;12.60;65.10;;;;;;5107142;28;20020;-71
2022/04/29 08:43:05;;;;;;;9.57;2.85;;;12.90;65.20;;;;;;5111478;28;20100;-71
2022/04/29 08:45:30;;;;;;;7.97;2.72;;;13.30;65.00;;;;;;5105461;28;20455;-71
2022/04/29 08:47:57;;;;;;;9.48;2.60;;;13.70;63.10;;;;;;5103835;28;20463;-71
2022/04/29 08:50:22;;;;;;;11.02;3.08;;;14.00;61.40;;;;;;5100093;28;20036;-71
2022/04/29 08:52:49;;;;;;;8.80;2.88;;;13.40;60.40;;;;;;5105088;28;20026;-71
2022/04/29 09:00:45;;;;;;;7.25;2.70;;;13.60;59.20;;;;;;5110408;28;20072;-71
2022/04/29 09:03:16;;;;;;;9.73;2.38;;;14.00;60.60;;;;;;5110196;28;20020;-71
2022/04/29 09:05:42;;;;;;;8.27;2.75;;;14.30;59.80;;;;;;5109471;28;20524;-71
2022/04/29 09:08:12;;;;;;;6.22;2.17;;;14.00;59.30;;;;;;5102211;28;20016;-71
2022/04/29 09:10:46;;;;;;;11.05;2.30;;;14.70;59.20;;;;;;5099672;28;20074;-71
2022/04/29 09:13:14;;;;;;;9.10;2.78;;;13.80;58.70;;;;;;5098772;28;20032;-71
2022/04/29 09:15:48;;;;;;;8.68;2.47;;;14.20;57.30;;;;;;5093845;28;20027;-71
2022/04/29 09:18:26;;;;;;;10.00;2.30;;;14.70;56.20;;;;;;5112050;28;20020;-71
2022/04/29 09:20:53;;;;;;;8.18;2.22;;;14.40;55.50;;;;;;5109108;28;20470;-71
2022/04/29 09:23:28;;;;;;;8.32;1.92;;;14.20;54.90;;;;;;5080091;28;20020;-71
2022/04/29 09:25:56;;;;;;;7.30;1.92;;;14.60;56.50;;;;;;5102929;28;20038;-71
2022/04/29 09:28:23;;;;;;;6.30;2.15;;;15.00;54.40;;;;;;5110629;28;20602;-71
2022/04/29 09:30:54;;;;;;;5.70;2.22;;;14.40;54.60;;;;;;5097713;28;20130;-71
2022/04/29 09:33:22;;;;;;;10.55;2.30;;;14.60;54.50;;;;;;5104405;28;20027;-71
2022/04/29 09:35:51;;;;;;;5.10;2.03;;;15.00;56.40;;;;;;5109313;28;20035;-71
2022/04/29 09:41:02;;;;;;;9.30;2.35;;;15.30;53.10;;;;;;5105586;28;20123;-71
2022/04/29 09:43:34;;;;;;;7.90;2.00;;;15.30;51.50;;;;;;5108290;28;20110;-71
2022/04/29 09:46:18;;;;;;;7.72;1.70;;;14.20;52.00;;;;;;5111517;28;20031;-71
2022/04/29 09:48:54;;;;;;;10.15;1.98;;;15.00;51.60;;;;;;5103078;28;20024;-71
2022/04/29 09:51:49;;;;;;;4.78;2.13;;;15.60;51.10;;;;;;5092716;28;20059;-71
2022/04/29 09:54:21;;;;;;;5.50;1.80;;;15.20;49.10;;;;;;5106665;28;20367;-71
2022/04/29 09:57:02;;;;;;;4.93;1.92;;;14.70;50.80;;;;;;5111588;28;20026;-71
2022/04/29 09:59:32;;;;;;;8.52;1.70;;;15.50;49.10;;;;;;5101843;28;20035;-71
2022/04/29 10:01:58;;;;;;;7.25;1.88;;;16.30;48.20;;;;;;5110508;28;20032;-71
2022/04/29 10:04:24;;;;;;;6.70;2.05;;;16.10;47.40;;;;;;5105323;28;20083;-71
2022/04/29 10:06:50;;;;;;;7.65;2.05;;;15.50;48.30;;;;;;5099608;28;20102;-71
2022/04/29 10:09:17;;;;;;;6.68;1.80;;;15.00;48.40;;;;;;5095299;28;20020;-71
2022/04/29 10:11:44;;;;;;;10.38;1.80;;;15.50;49.90;;;;;;5110747;28;20050;-71
2022/04/29 10:14:14;;;;;;;6.60;2.03;;;16.00;48.50;;;;;;5110397;28;20343;-72
2022/04/29 10:16:44;;;;;;;4.20;1.77;;;15.80;46.10;;;;;;5103699;28;20115;-71
2022/04/29 10:22:00;;;;;;;5.72;1.63;;;16.40;48.90;;;;;;5101397;28;20508;-71
2022/04/29 10:24:26;;;;;;;3.63;1.52;;;16.30;48.00;;;;;;5095805;28;20447;-71
2022/04/29 10:26:53;;;;;;;5.57;1.58;;;16.60;44.60;;;;;;5107015;28;20097;-72
2022/04/29 10:29:19;;;;;;;7.30;2.15;;;15.80;46.30;;;;;;5102024;28;20030;-71
2022/04/29 10:32:08;;;;;;;4.32;1.63;;;15.50;47.80;;;;;;5107603;28;20028;-71
2022/04/29 10:34:35;;;;;;;6.75;1.73;;;15.70;48.00;;;;;;5106692;28;20023;-72
2022/04/29 10:37:01;;;;;;;5.18;1.75;;;14.90;47.50;;;;;;5110405;28;20069;-71
2022/04/29 10:39:26;;;;;;;5.97;1.95;;;15.60;47.00;;;;;;5102518;28;20032;-72
2022/04/29 10:42:00;;;;;;;4.25;1.85;;;15.70;47.10;;;;;;5103072;28;20052;-71
2022/04/29 10:44:25;;;;;;;5.95;1.98;;;15.80;46.30;;;;;;5110187;28;20028;-72
2022/04/29 10:46:51;;;;;;;7.13;1.90;;;15.00;46.70;;;;;;5109383;28;20055;-72
2022/04/29 10:49:23;;;;;;;4.53;1.73;;;15.80;46.70;;;;;;5109874;28;20051;-71
2022/04/29 10:51:49;;;;;;;4.88;1.80;;;15.40;45.30;;;;;;5102083;28;20091;-71
2022/04/29 10:54:15;;;;;;;4.30;1.63;;;15.60;45.70;;;;;;5099770;28;20046;-71
2022/04/29 10:56:41;;;;;;;6.70;1.67;;;16.00;46.30;;;;;;5103268;28;20032;-72
2022/04/29 10:59:06;;;;;;;7.00;1.65;;;16.80;44.30;;;;;;5093539;28;20015;-71
2022/04/29 11:01:33;;;;;;;6.32;1.77;;;16.90;44.10;;;;;;5111480;28;20028;-71
2022/04/29 11:04:14;;;;;;;5.20;1.85;;;16.70;46.90;;;;;;5108367;28;20080;-71
2022/04/29 11:06:47;;;;;;;4.95;1.73;;;16.00;43.40;;;;;;5108839;28;20030;-72
2022/04/29 11:09:30;;;;;;;4.80;1.73;;;16.10;47.70;;;;;;5107789;28;20038;-72
2022/04/29 11:11:58;;;;;;;3.05;1.70;;;16.60;45.30;;;;;;5106582;28;20422;-72
2022/04/29 11:14:23;;;;;;;5.13;1.92;;;17.20;42.90;;;;;;5102626;28;20093;-72
2022/04/29 11:17:06;;;;;;;5.72;1.90;;;17.30;45.80;;;;;;5104202;28;20459;-72
2022/04/29 11:19:40;;;;;;;5.03;1.90;;;17.50;44.40;;;;;;5103118;28;20040;-72
2022/04/29 11:24:53;;;;;;;6.88;2.20;;;17.70;43.40;;;;;;5095496;28;20035;-73
2022/04/29 11:27:25;;;;;;;6.57;1.90;;;16.30;43.80;;;;;;5101555;28;20041;-72
2022/04/29 11:29:52;;;;;;;4.68;1.60;;;16.70;45.40;;;;;;5106979;28;20012;-72
2022/04/29 11:32:24;;;;;;;6.78;2.17;;;17.70;45.60;;;;;;5107306;28;20030;-72
2022/04/29 11:34:54;;;;;;;6.70;2.00;;;16.70;44.60;;;;;;5102511;28;20020;-70
2022/04/29 11:37:25;;;;;;;7.78;2.35;;;17.90;46.10;;;;;;5100941;28;20104;-70
2022/04/29 11:39:54;;;;;;;5.75;2.00;;;17.90;44.40;;;;;;5103348;28;20086;-70
2022/04/29 11:42:21;;;;;;;6.22;2.30;;;17.20;44.00;;;;;;5090646;28;20076;-70
2022/04/29 11:44:49;;;;;;;5.82;2.40;;;16.70;46.80;;;;;;5097573;28;20033;-70
2022/04/29 11:47:16;;;;;;;5.13;2.38;;;17.00;46.00;;;;;;5099881;28;20475;-70
2022/04/29 11:49:42;;;;;;;6.70;2.42;;;17.00;46.20;;;;;;5100159;28;20105;-70
2022/04/29 11:52:21;;;;;;;5.05;2.53;;;16.30;45.50;;;;;;5100798;28;20208;-70
2022/04/29 11:54:55;;;;;;;5.78;2.55;;;16.00;47.00;;;;;;5111228;28;20026;-70
2022/04/29 11:57:22;;;;;;;6.60;2.85;;;16.60;47.30;;;;;;5094578;28;20093;-70
2022/04/29 11:59:48;;;;;;;8.10;2.90;;;17.30;46.50;;;;;;5108305;28;20012;-71
2022/04/29 12:02:18;;;;;;;5.93;2.40;;;16.90;46.40;;;;;;5105414;28;20473;-72
2022/04/29 12:05:06;;;;;;;5.70;2.58;;;15.70;47.10;;;;;;5085640;28;20382;-72
2022/04/29 12:07:40;;;;;;;7.47;2.15;;;16.50;47.80;;;;;;5106583;28;20245;-73
2022/04/29 12:10:17;;;;;;;3.55;2.40;;;16.30;47.90;;;;;;5108421;28;20019;-72
2022/04/29 12:12:43;;;;;;;6.32;2.30;;;16.70;46.60;;;;;;5079439;28;20110;-72
2022/04/29 12:15:10;;;;;;;6.88;2.30;;;16.90;47.10;;;;;;5094866;28;20078;-72
2022/04/29 12:17:40;;;;;;;6.70;2.28;;;15.90;47.50;;;;;;5099080;28;20081;-71
2022/04/29 12:20:10;;;;;;;8.52;3.17;;;16.20;49.10;;;;;;5109648;28;20022;-72
2022/04/29 12:22:38;;;;;;;9.38;2.80;;;16.40;46.10;;;;;;5103743;28;20547;-72
2022/04/29 12:25:23;;;;;;;8.32;2.30;;;16.10;47.40;;;;;;5108747;28;20035;-72
2022/04/29 12:28:19;;;;;;;6.05;2.60;;;16.40;48.10;;;;;;5113818;28;20034;-71
2022/04/29 12:37:10;;;;;;;5.70;2.47;;;17.10;48.50;;;;;;5109908;28;20042;-71
2022/04/29 12:39:44;;;;;;;6.57;2.58;;;17.60;45.10;;;;;;5104915;28;20358;-72
2022/04/29 12:42:14;;;;;;;7.13;2.88;;;17.70;44.60;;;;;;5108608;28;20550;-71
2022/04/29 12:45:10;;;;;;;7.60;3.20;;;16.60;46.40;;;;;;5105747;28;20106;-71
2022/04/29 12:47:38;;;;;;;5.97;3.60;;;15.90;47.00;;;;;;5106276;28;20032;-71
2022/04/29 12:50:31;;;;;;;7.55;3.53;;;15.60;48.20;;;;;;5093562;28;20503;-71
2022/04/29 12:53:07;;;;;;;7.65;3.25;;;15.80;49.90;;;;;;5105538;28;20047;-71
2022/04/29 12:55:35;;;;;;;8.15;3.30;;;16.20;47.50;;;;;;5097283;28;20687;-71
2022/04/29 12:58:22;;;;;;;11.30;3.70;;;16.90;51.00;;;;;;5106350;28;20016;-71
2022/04/29 13:00:56;;;;;;;7.72;3.90;;;16.50;48.60;;;;;;5091473;28;20045;-71
2022/04/29 13:03:25;;;;;;;4.75;3.70;;;16.90;49.40;;;;;;5089325;28;20027;-71
2022/04/29 13:05:50;;;;;;;9.25;3.65;;;15.90;48.30;;;;;;5101819;28;20517;-71
2022/04/29 13:08:16;;;;;;;8.27;3.78;;;15.50;48.90;;;;;;5108098;28;20106;-71
2022/04/29 13:10:49;;;;;;;9.13;3.80;;;15.90;51.30;;;;;;5102951;28;20028;-71
2022/04/29 13:13:14;;;;;;;7.57;3.85;;;16.20;48.10;;;;;;5093764;28;20111;-71
2022/04/29 13:15:41;;;;;;;5.07;3.22;;;15.60;49.70;;;;;;5101933;28;20099;-70
2022/04/29 13:18:07;;;;;;;6.80;3.15;;;15.30;49.70;;;;;;5108120;28;20478;-70
2022/04/29 13:20:33;;;;;;;6.68;3.00;;;16.00;49.00;;;;;;5113933;28;20049;-71